Time;durP1;ratioP1;P1;durP2;ratioP2;P2;SDS_P1;SDS_P2;PMS_P1;PMS_P2;Temp;Humidity;BMP_temperature;BMP_pressure;BME280_temperature;BME280_humidity;BME280_pressure;Samples;Min_cycle;Max_cycle;Signal;HPM_P1;HPM_P2
2023/03/21 00:00:43;;;;;;;65.75;40.38;;;;;;;;;;5043985;28;20429;-80
2023/03/21 00:03:11;;;;;;;66.93;39.25;;;;;;;;;;5042993;28;20427;-80
2023/03/21 00:05:40;;;;;;;62.72;39.22;;;;;;;;;;5046459;28;20436;-81
2023/03/21 00:08:08;;;;;;;62.43;40.63;;;;;;;;;;5043590;28;20423;-80
2023/03/21 00:10:35;;;;;;;63.90;40.05;;;;;;;;;;5044227;28;20417;-82
2023/03/21 00:13:04;;;;;;;59.97;39.00;;;;;;;;;;5039597;28;20413;-81
2023/03/21 00:15:30;;;;;;;67.75;40.33;;;;;;;;;;5046275;28;20428;-80
2023/03/21 00:18:02;;;;;;;71.30;40.70;;;;;;;;;;5045429;28;20423;-82
2023/03/21 00:20:28;;;;;;;57.80;39.90;;;;;;;;;;5044162;28;20429;-83
2023/03/21 00:22:55;;;;;;;62.07;40.93;;;;;;;;;;5042748;28;20418;-80
2023/03/21 00:25:22;;;;;;;67.05;42.50;;;;;;;;;;5049065;28;20433;-80
2023/03/21 00:27:49;;;;;;;65.13;40.85;;;;;;;;;;5041823;28;20945;-79
2023/03/21 00:30:16;;;;;;;62.10;40.28;;;;;;;;;;5042978;28;20502;-81
2023/03/21 00:32:42;;;;;;;68.55;42.15;;;;;;;;;;5042149;28;20796;-81
2023/03/21 00:35:09;;;;;;;63.90;41.35;;;;;;;;;;5042611;28;20433;-81
2023/03/21 00:37:35;;;;;;;65.75;41.65;;;;;;;;;;5043297;28;20938;-81
2023/03/21 00:40:07;;;;;;;67.78;41.22;;;;;;;;;;5046706;28;20524;-81
2023/03/21 00:42:35;;;;;;;65.57;41.33;;;;;;;;;;5043867;28;20431;-81
2023/03/21 00:45:02;;;;;;;66.20;42.03;;;;;;;;;;5045687;28;20436;-81
2023/03/21 00:47:28;;;;;;;69.80;42.43;;;;;;;;;;5044426;28;20429;-81
2023/03/21 00:49:55;;;;;;;69.05;42.85;;;;;;;;;;5044233;28;20425;-80
2023/03/21 00:52:21;;;;;;;70.07;42.65;;;;;;;;;;5043564;28;20950;-80
2023/03/21 00:54:48;;;;;;;70.22;43.15;;;;;;;;;;5045125;28;20427;-82
2023/03/21 00:57:14;;;;;;;68.85;43.70;;;;;;;;;;5044311;28;20430;-82
2023/03/21 00:59:42;;;;;;;72.70;43.17;;;;;;;;;;5045952;28;20437;-81
2023/03/21 01:02:13;;;;;;;67.53;43.97;;;;;;;;;;5039552;28;20427;-82
2023/03/21 01:04:39;;;;;;;68.93;42.95;;;;;;;;;;5043595;28;20461;-82
2023/03/21 01:07:06;;;;;;;67.78;43.13;;;;;;;;;;5044499;28;20417;-82
2023/03/21 01:09:32;;;;;;;64.85;41.75;;;;;;;;;;5046491;28;20929;-83
2023/03/21 01:11:59;;;;;;;62.45;40.55;;;;;;;;;;5053757;28;20901;-81
2023/03/21 01:14:26;;;;;;;65.53;41.60;;;;;;;;;;5067181;28;20476;-83
2023/03/21 01:16:55;;;;;;;63.40;39.47;;;;;;;;;;5063961;28;20423;-81
2023/03/21 01:19:25;;;;;;;63.97;39.38;;;;;;;;;;5061902;28;20427;-82
2023/03/21 01:21:51;;;;;;;65.10;40.15;;;;;;;;;;5066820;28;20450;-81
2023/03/21 01:24:18;;;;;;;60.10;39.70;;;;;;;;;;5065578;28;20549;-81
2023/03/21 01:26:44;;;;;;;60.80;39.25;;;;;;;;;;5067054;28;20412;-82
2023/03/21 01:29:10;;;;;;;63.95;40.13;;;;;;;;;;5066287;28;20430;-81
2023/03/21 01:31:38;;;;;;;63.70;40.08;;;;;;;;;;5064051;28;20530;-81
2023/03/21 01:34:06;;;;;;;58.17;38.58;;;;;;;;;;5064106;28;20925;-81
2023/03/21 01:36:33;;;;;;;57.95;38.72;;;;;;;;;;5064498;28;20976;-81
2023/03/21 01:39:00;;;;;;;62.37;39.97;;;;;;;;;;5068416;28;20431;-81
2023/03/21 01:41:29;;;;;;;60.97;39.63;;;;;;;;;;5066517;28;20438;-81
2023/03/21 01:43:55;;;;;;;56.88;38.35;;;;;;;;;;5067749;28;20431;-81
2023/03/21 01:46:31;;;;;;;57.63;38.23;;;;;;;;;;5065828;28;20452;-81
2023/03/21 01:49:00;;;;;;;64.50;41.28;;;;;;;;;;5067175;28;20427;-81
2023/03/21 01:51:29;;;;;;;62.47;40.22;;;;;;;;;;5064655;28;20433;-82
2023/03/21 01:53:56;;;;;;;62.80;39.22;;;;;;;;;;5068154;28;20437;-81
2023/03/21 01:56:24;;;;;;;63.90;40.10;;;;;;;;;;5070120;28;20423;-81
2023/03/21 01:58:54;;;;;;;64.13;39.63;;;;;;;;;;5063535;28;20431;-81
2023/03/21 02:01:21;;;;;;;69.18;42.28;;;;;;;;;;5068509;28;20427;-82
2023/03/21 02:03:52;;;;;;;66.10;42.50;;;;;;;;;;5068032;28;20427;-81
2023/03/21 02:06:29;;;;;;;66.68;42.65;;;;;;;;;;5062013;28;20413;-82
2023/03/21 02:08:58;;;;;;;64.00;40.97;;;;;;;;;;5066725;28;20857;-81
2023/03/21 02:11:25;;;;;;;70.68;42.28;;;;;;;;;;5066826;28;20800;-82
2023/03/21 02:13:52;;;;;;;72.80;43.20;;;;;;;;;;5064485;28;20542;-81
2023/03/21 02:16:21;;;;;;;73.70;43.25;;;;;;;;;;5062944;28;20435;-81
2023/03/21 02:18:50;;;;;;;78.82;44.83;;;;;;;;;;5065959;28;20431;-81
2023/03/21 02:21:37;;;;;;;73.90;45.23;;;;;;;;;;5063655;28;20431;-81
2023/03/21 02:24:24;;;;;;;74.05;43.58;;;;;;;;;;5059070;28;20420;-81
2023/03/21 02:27:03;;;;;;;80.53;45.20;;;;;;;;;;5054209;28;20496;-81
2023/03/21 02:29:59;;;;;;;79.78;44.67;;;;;;;;;;5045226;28;20811;-81
2023/03/21 02:32:29;;;;;;;81.68;45.40;;;;;;;;;;5045281;28;20436;-81
2023/03/21 02:35:03;;;;;;;79.55;45.10;;;;;;;;;;5046883;28;20920;-81
2023/03/21 02:37:33;;;;;;;81.57;46.65;;;;;;;;;;5041465;28;20507;-81
2023/03/21 02:40:08;;;;;;;84.30;47.33;;;;;;;;;;5047224;28;20836;-81
2023/03/21 02:42:39;;;;;;;85.23;45.50;;;;;;;;;;5044871;28;20544;-82
2023/03/21 02:45:09;;;;;;;81.72;44.35;;;;;;;;;;5040251;28;20892;-81
2023/03/21 02:47:39;;;;;;;93.40;47.60;;;;;;;;;;5047122;28;20431;-81
2023/03/21 02:50:09;;;;;;;86.80;47.55;;;;;;;;;;5024795;28;20422;-81
2023/03/21 02:52:36;;;;;;;81.70;47.00;;;;;;;;;;5042131;28;20436;-82
2023/03/21 02:55:05;;;;;;;91.03;49.90;;;;;;;;;;5045128;28;20472;-81
2023/03/21 02:57:32;;;;;;;92.30;49.70;;;;;;;;;;5044268;28;20433;-81
2023/03/21 02:59:58;;;;;;;92.43;48.13;;;;;;;;;;5045181;28;20430;-81
2023/03/21 03:02:26;;;;;;;88.30;47.35;;;;;;;;;;5046931;28;20443;-81
2023/03/21 03:04:52;;;;;;;83.90;48.08;;;;;;;;;;5046021;28;20426;-81
2023/03/21 03:07:24;;;;;;;96.20;49.47;;;;;;;;;;5043834;28;20430;-81
2023/03/21 03:09:58;;;;;;;89.93;49.15;;;;;;;;;;5044885;28;20431;-81
2023/03/21 03:12:28;;;;;;;90.20;47.38;;;;;;;;;;5042055;28;20419;-81
2023/03/21 03:14:59;;;;;;;92.97;48.53;;;;;;;;;;5045852;28;20426;-81
2023/03/21 03:17:33;;;;;;;91.47;49.90;;;;;;;;;;5043342;28;20488;-82
2023/03/21 03:20:09;;;;;;;94.97;49.53;;;;;;;;;;5046512;28;20433;-81
2023/03/21 03:22:39;;;;;;;85.70;49.15;;;;;;;;;;5040799;28;20433;-81
2023/03/21 03:25:09;;;;;;;91.63;50.22;;;;;;;;;;5045357;28;20937;-82
2023/03/21 03:27:38;;;;;;;93.90;50.20;;;;;;;;;;5046561;28;20448;-81
2023/03/21 03:30:05;;;;;;;88.78;49.40;;;;;;;;;;5046351;28;20440;-82
2023/03/21 03:32:35;;;;;;;90.50;48.63;;;;;;;;;;5044936;28;20432;-82
2023/03/21 03:35:03;;;;;;;90.03;49.63;;;;;;;;;;5040074;28;20446;-81
2023/03/21 03:37:30;;;;;;;89.35;48.17;;;;;;;;;;5043013;28;20426;-81
2023/03/21 03:39:59;;;;;;;90.18;49.00;;;;;;;;;;5043989;28;20425;-81
2023/03/21 03:42:30;;;;;;;94.20;49.35;;;;;;;;;;5041170;28;20477;-82
2023/03/21 03:44:57;;;;;;;93.25;49.88;;;;;;;;;;5046034;28;20429;-82
2023/03/21 03:47:28;;;;;;;93.60;49.83;;;;;;;;;;5045839;28;20434;-81
2023/03/21 03:49:58;;;;;;;85.15;48.25;;;;;;;;;;5043434;28;20433;-81
2023/03/21 03:52:26;;;;;;;99.77;51.73;;;;;;;;;;5045410;28;20435;-81
2023/03/21 03:54:53;;;;;;;92.22;51.05;;;;;;;;;;5041437;28;20441;-81
2023/03/21 03:57:20;;;;;;;90.20;49.65;;;;;;;;;;5045203;28;20425;-81
2023/03/21 03:59:47;;;;;;;99.25;53.17;;;;;;;;;;5044348;28;20432;-81
2023/03/21 04:02:15;;;;;;;99.82;53.38;;;;;;;;;;5045596;28;20423;-81
2023/03/21 04:04:43;;;;;;;94.93;51.08;;;;;;;;;;5045643;28;20434;-81
2023/03/21 04:07:09;;;;;;;97.07;50.30;;;;;;;;;;5047074;28;20441;-81
2023/03/21 04:09:36;;;;;;;99.97;51.97;;;;;;;;;;5042517;28;20436;-81
2023/03/21 04:12:03;;;;;;;100.45;51.83;;;;;;;;;;5041056;28;20428;-81
2023/03/21 04:14:29;;;;;;;103.40;54.10;;;;;;;;;;5046655;28;20429;-81
2023/03/21 04:16:57;;;;;;;101.00;53.73;;;;;;;;;;5043054;28;20830;-81
2023/03/21 04:19:23;;;;;;;105.60;52.27;;;;;;;;;;5047298;28;20538;-81
2023/03/21 04:21:50;;;;;;;105.38;53.95;;;;;;;;;;5042597;28;20425;-81
2023/03/21 04:24:17;;;;;;;102.90;53.57;;;;;;;;;;5045458;28;20438;-81
2023/03/21 04:26:43;;;;;;;98.63;51.72;;;;;;;;;;5043830;28;20405;-81
2023/03/21 04:29:10;;;;;;;109.47;54.65;;;;;;;;;;5041935;28;20524;-81
2023/03/21 04:31:36;;;;;;;106.65;53.67;;;;;;;;;;5044388;28;20435;-81
2023/03/21 04:34:08;;;;;;;108.20;55.30;;;;;;;;;;5044463;28;20432;-81
2023/03/21 04:36:37;;;;;;;106.20;55.20;;;;;;;;;;5042389;28;20543;-81
2023/03/21 04:39:10;;;;;;;106.90;53.50;;;;;;;;;;5042127;28;20437;-81
2023/03/21 04:41:38;;;;;;;111.85;54.35;;;;;;;;;;5040658;28;20425;-81
2023/03/21 04:44:04;;;;;;;116.60;55.10;;;;;;;;;;5040520;28;20508;-81
2023/03/21 04:46:31;;;;;;;124.60;55.88;;;;;;;;;;5045987;28;20456;-81
2023/03/21 04:48:58;;;;;;;128.75;57.83;;;;;;;;;;5048538;28;20444;-81
2023/03/21 04:51:26;;;;;;;119.68;57.85;;;;;;;;;;5045919;28;20459;-81
2023/03/21 04:53:56;;;;;;;116.88;57.15;;;;;;;;;;5050750;28;20429;-81
2023/03/21 04:56:24;;;;;;;128.40;57.58;;;;;;;;;;5050775;28;20526;-81
2023/03/21 04:58:51;;;;;;;124.40;57.17;;;;;;;;;;5046581;28;20453;-81
2023/03/21 05:01:19;;;;;;;126.07;59.05;;;;;;;;;;5047264;28;20427;-81
2023/03/21 05:03:45;;;;;;;129.13;57.42;;;;;;;;;;5042578;28;20796;-81
2023/03/21 05:06:12;;;;;;;130.73;60.67;;;;;;;;;;5046834;28;21431;-81
2023/03/21 05:08:40;;;;;;;144.50;62.22;;;;;;;;;;5048014;28;20434;-81
2023/03/21 05:11:06;;;;;;;136.00;59.45;;;;;;;;;;5047677;28;20434;-81
2023/03/21 05:13:33;;;;;;;129.80;60.50;;;;;;;;;;5046201;28;20431;-81
2023/03/21 05:16:01;;;;;;;127.80;58.22;;;;;;;;;;5046907;28;20501;-81
2023/03/21 05:18:29;;;;;;;129.80;59.13;;;;;;;;;;5047131;28;20429;-81
2023/03/21 05:20:56;;;;;;;131.43;56.42;;;;;;;;;;5046900;28;20733;-81
2023/03/21 05:23:23;;;;;;;120.83;57.37;;;;;;;;;;5043886;28;20810;-81
2023/03/21 05:25:51;;;;;;;126.45;59.38;;;;;;;;;;5045214;28;20501;-81
2023/03/21 05:28:18;;;;;;;130.30;58.22;;;;;;;;;;5045172;28;20437;-81
2023/03/21 05:30:44;;;;;;;129.23;58.90;;;;;;;;;;5046254;28;20440;-81
2023/03/21 05:33:11;;;;;;;133.20;60.03;;;;;;;;;;5046843;28;20547;-81
2023/03/21 05:35:37;;;;;;;129.02;58.58;;;;;;;;;;5047005;28;20436;-81
2023/03/21 05:38:04;;;;;;;122.10;57.25;;;;;;;;;;5043962;28;20420;-81
2023/03/21 05:40:30;;;;;;;127.78;56.35;;;;;;;;;;5042792;28;20552;-81
2023/03/21 05:42:58;;;;;;;123.82;58.80;;;;;;;;;;5046092;28;20962;-81
2023/03/21 05:45:25;;;;;;;110.80;52.87;;;;;;;;;;5045531;28;20935;-81
2023/03/21 05:47:51;;;;;;;121.57;59.38;;;;;;;;;;5045439;28;20469;-81
2023/03/21 05:50:17;;;;;;;118.22;54.20;;;;;;;;;;5047633;28;20444;-81
2023/03/21 05:52:46;;;;;;;115.95;55.15;;;;;;;;;;5047387;28;20419;-81
2023/03/21 05:55:12;;;;;;;118.00;54.55;;;;;;;;;;5048173;28;20437;-81
2023/03/21 05:57:39;;;;;;;127.22;57.97;;;;;;;;;;5044601;28;20423;-81
2023/03/21 06:00:09;;;;;;;127.78;58.20;;;;;;;;;;5043864;28;20791;-81
2023/03/21 06:02:35;;;;;;;120.35;56.33;;;;;;;;;;5042634;28;20430;-81
2023/03/21 06:05:01;;;;;;;131.55;60.55;;;;;;;;;;5042291;28;20429;-81
2023/03/21 06:07:28;;;;;;;130.65;58.45;;;;;;;;;;5044227;28;20417;-81
2023/03/21 06:09:55;;;;;;;122.78;59.53;;;;;;;;;;5044371;28;20935;-81
2023/03/21 06:12:21;;;;;;;130.32;57.55;;;;;;;;;;5044020;28;20415;-81
2023/03/21 06:14:48;;;;;;;122.68;58.08;;;;;;;;;;5045828;28;20977;-81
2023/03/21 06:17:16;;;;;;;121.65;58.10;;;;;;;;;;5045455;28;20421;-81
2023/03/21 06:19:42;;;;;;;127.32;59.55;;;;;;;;;;5042565;28;20593;-81
2023/03/21 06:22:10;;;;;;;129.40;60.17;;;;;;;;;;5047686;28;20419;-81
2023/03/21 06:24:36;;;;;;;120.43;58.17;;;;;;;;;;5046494;28;20456;-81
2023/03/21 06:27:03;;;;;;;115.38;57.42;;;;;;;;;;5045258;28;20418;-81
2023/03/21 06:29:30;;;;;;;112.13;55.40;;;;;;;;;;5046087;28;20442;-81
2023/03/21 06:31:56;;;;;;;108.93;53.85;;;;;;;;;;5042892;28;20410;-81
2023/03/21 06:34:25;;;;;;;109.45;53.33;;;;;;;;;;5041941;28;20952;-81
2023/03/21 06:36:53;;;;;;;109.20;52.20;;;;;;;;;;5047455;28;20411;-81
2023/03/21 06:39:20;;;;;;;104.90;50.60;;;;;;;;;;5045759;28;20422;-81
2023/03/21 06:41:47;;;;;;;88.57;47.90;;;;;;;;;;5044835;28;20438;-81
2023/03/21 06:44:14;;;;;;;102.68;47.75;;;;;;;;;;5043378;28;20429;-81
2023/03/21 06:46:41;;;;;;;92.20;47.88;;;;;;;;;;5045817;28;20416;-81
2023/03/21 06:49:08;;;;;;;89.70;44.58;;;;;;;;;;5045478;28;20797;-81
2023/03/21 06:51:36;;;;;;;86.38;44.58;;;;;;;;;;5043659;28;20437;-81
2023/03/21 06:54:02;;;;;;;84.78;45.60;;;;;;;;;;5043105;28;20528;-81
2023/03/21 06:56:29;;;;;;;78.40;43.08;;;;;;;;;;5044787;28;20926;-81
2023/03/21 06:58:55;;;;;;;83.38;44.60;;;;;;;;;;5042439;28;20438;-81
2023/03/21 07:01:26;;;;;;;79.43;42.05;;;;;;;;;;5042636;28;20804;-81
2023/03/21 07:03:52;;;;;;;79.53;42.38;;;;;;;;;;5043093;28;20486;-81
2023/03/21 07:06:19;;;;;;;76.63;42.17;;;;;;;;;;5044081;28;20437;-81
2023/03/21 07:08:47;;;;;;;72.18;41.47;;;;;;;;;;5038836;28;20423;-81
2023/03/21 07:11:13;;;;;;;75.53;39.78;;;;;;;;;;5041352;28;20431;-81
2023/03/21 07:13:41;;;;;;;69.72;39.92;;;;;;;;;;5038358;28;20429;-81
2023/03/21 07:16:08;;;;;;;63.70;39.20;;;;;;;;;;5042157;28;20429;-81
2023/03/21 07:18:34;;;;;;;62.53;38.13;;;;;;;;;;5045864;28;20929;-81
2023/03/21 07:21:01;;;;;;;62.20;37.28;;;;;;;;;;5046150;28;20516;-81
2023/03/21 07:23:27;;;;;;;56.97;35.90;;;;;;;;;;5041084;28;20425;-81
2023/03/21 07:25:55;;;;;;;61.10;36.55;;;;;;;;;;5044581;28;20436;-81
2023/03/21 07:28:22;;;;;;;63.35;37.35;;;;;;;;;;5039677;28;20421;-81
2023/03/21 07:30:53;;;;;;;58.47;36.85;;;;;;;;;;5042045;28;20463;-81
2023/03/21 07:33:21;;;;;;;62.95;35.85;;;;;;;;;;5041116;28;20431;-81
2023/03/21 07:35:48;;;;;;;56.63;34.33;;;;;;;;;;5041224;28;20918;-81
2023/03/21 07:38:15;;;;;;;58.33;35.07;;;;;;;;;;5044480;28;20429;-81
2023/03/21 07:40:42;;;;;;;58.58;36.25;;;;;;;;;;5041528;28;20434;-81
2023/03/21 07:43:09;;;;;;;62.28;35.67;;;;;;;;;;5038996;28;20427;-81
2023/03/21 07:45:36;;;;;;;53.17;34.28;;;;;;;;;;5043577;28;20430;-81
2023/03/21 07:48:02;;;;;;;58.45;35.65;;;;;;;;;;5040355;28;20433;-81
2023/03/21 07:50:29;;;;;;;55.35;34.40;;;;;;;;;;5042241;28;20943;-81
2023/03/21 07:52:56;;;;;;;53.50;33.80;;;;;;;;;;5041865;28;20411;-81
2023/03/21 07:55:23;;;;;;;53.70;33.30;;;;;;;;;;5045665;28;20778;-81
2023/03/21 07:57:50;;;;;;;47.77;32.07;;;;;;;;;;5046969;28;20442;-81
2023/03/21 08:00:21;;;;;;;51.08;32.22;;;;;;;;;;5041718;28;20432;-82
2023/03/21 08:02:48;;;;;;;46.20;30.27;;;;;;;;;;5044588;28;20421;-81
2023/03/21 08:05:15;;;;;;;45.67;31.52;;;;;;;;;;5040042;28;20421;-81
2023/03/21 08:07:41;;;;;;;41.00;29.15;;;;;;;;;;5043294;28;20485;-81
2023/03/21 08:10:09;;;;;;;41.33;29.98;;;;;;;;;;5045186;28;20413;-82
2023/03/21 08:12:35;;;;;;;46.15;30.55;;;;;;;;;;5044500;28;20414;-82
2023/03/21 08:15:02;;;;;;;47.50;30.40;;;;;;;;;;5045901;28;20427;-82
2023/03/21 08:17:29;;;;;;;44.13;30.85;;;;;;;;;;5040754;28;20965;-80
2023/03/21 08:19:56;;;;;;;45.78;30.20;;;;;;;;;;5042602;28;20425;-80
2023/03/21 08:22:23;;;;;;;43.97;29.95;;;;;;;;;;5045105;28;20463;-80
2023/03/21 08:24:50;;;;;;;37.13;27.07;;;;;;;;;;5049077;28;20959;-80
2023/03/21 08:27:16;;;;;;;37.00;27.00;;;;;;;;;;5047357;28;20925;-81
2023/03/21 08:29:43;;;;;;;41.13;27.83;;;;;;;;;;5043606;28;20418;-79
2023/03/21 08:32:09;;;;;;;37.17;27.70;;;;;;;;;;5046690;28;20434;-80
2023/03/21 08:34:37;;;;;;;37.05;28.02;;;;;;;;;;5041394;28;20514;-81
2023/03/21 08:37:03;;;;;;;45.72;31.40;;;;;;;;;;5047401;28;20416;-81
2023/03/21 08:39:30;;;;;;;43.92;29.67;;;;;;;;;;5041045;28;20441;-81
2023/03/21 08:41:58;;;;;;;40.80;29.15;;;;;;;;;;5046443;28;20429;-81
2023/03/21 08:44:25;;;;;;;40.50;28.23;;;;;;;;;;5048653;28;20436;-81
2023/03/21 08:46:52;;;;;;;39.17;28.10;;;;;;;;;;5046699;28;20411;-81
2023/03/21 08:49:18;;;;;;;43.00;27.77;;;;;;;;;;5047826;28;20424;-81
2023/03/21 08:51:46;;;;;;;39.42;27.08;;;;;;;;;;5047041;28;20430;-81
2023/03/21 08:54:18;;;;;;;39.05;28.10;;;;;;;;;;5046047;28;20948;-81
2023/03/21 08:56:45;;;;;;;43.80;27.83;;;;;;;;;;5046218;28;20422;-82
2023/03/21 08:59:11;;;;;;;38.00;26.50;;;;;;;;;;5045064;28;20429;-82
2023/03/21 09:01:38;;;;;;;41.08;27.60;;;;;;;;;;5045894;28;20797;-81
2023/03/21 09:04:06;;;;;;;39.42;27.05;;;;;;;;;;5049466;28;20427;-81
2023/03/21 09:06:33;;;;;;;39.35;27.27;;;;;;;;;;5044191;28;20415;-81
2023/03/21 09:09:01;;;;;;;38.47;27.67;;;;;;;;;;5044495;28;21452;-81
2023/03/21 09:11:27;;;;;;;36.85;26.25;;;;;;;;;;5047135;28;20421;-81
2023/03/21 09:13:54;;;;;;;39.58;26.95;;;;;;;;;;5045434;28;20439;-81
2023/03/21 09:16:20;;;;;;;38.78;26.45;;;;;;;;;;5046333;28;20949;-81
2023/03/21 09:18:48;;;;;;;39.28;27.15;;;;;;;;;;5047977;28;20434;-81
2023/03/21 09:21:17;;;;;;;35.33;26.48;;;;;;;;;;5048034;28;20502;-82
2023/03/21 09:23:45;;;;;;;37.95;26.88;;;;;;;;;;5046268;28;20425;-81
2023/03/21 09:26:15;;;;;;;37.20;26.47;;;;;;;;;;5042897;28;21049;-81
2023/03/21 09:28:41;;;;;;;36.35;25.85;;;;;;;;;;5045477;28;20431;-82
2023/03/21 09:31:10;;;;;;;38.88;26.27;;;;;;;;;;5049630;28;20434;-81
2023/03/21 09:33:37;;;;;;;34.58;25.42;;;;;;;;;;5045159;28;20431;-82
2023/03/21 09:36:05;;;;;;;34.17;25.00;;;;;;;;;;5046790;28;20502;-81
2023/03/21 09:38:36;;;;;;;34.30;23.80;;;;;;;;;;5048430;28;20435;-82
2023/03/21 09:41:11;;;;;;;31.50;23.10;;;;;;;;;;5041819;28;20926;-81
2023/03/21 09:43:46;;;;;;;33.70;23.25;;;;;;;;;;5045742;28;20432;-82
2023/03/21 09:46:17;;;;;;;32.05;22.95;;;;;;;;;;5040148;28;20946;-81
2023/03/21 09:48:46;;;;;;;29.25;21.50;;;;;;;;;;5045986;28;20427;-81
2023/03/21 09:51:16;;;;;;;30.63;23.20;;;;;;;;;;5045003;28;20433;-81
2023/03/21 09:53:44;;;;;;;26.37;21.03;;;;;;;;;;5044715;28;20489;-82
2023/03/21 09:56:11;;;;;;;30.00;21.40;;;;;;;;;;5044613;28;20436;-81
2023/03/21 09:58:40;;;;;;;25.80;20.98;;;;;;;;;;5047216;28;20425;-81
2023/03/21 10:01:21;;;;;;;25.97;20.97;;;;;;;;;;5045338;28;20425;-82
2023/03/21 10:03:47;;;;;;;28.87;22.00;;;;;;;;;;5047846;28;20421;-82
2023/03/21 10:06:16;;;;;;;30.50;22.93;;;;;;;;;;5043317;28;20425;-82
2023/03/21 10:08:44;;;;;;;32.78;23.65;;;;;;;;;;5044448;28;20800;-82
2023/03/21 10:11:12;;;;;;;32.22;22.98;;;;;;;;;;5044089;28;20433;-82
2023/03/21 10:13:41;;;;;;;32.17;23.13;;;;;;;;;;5044919;28;20421;-82
2023/03/21 10:16:14;;;;;;;34.17;24.73;;;;;;;;;;5043271;28;20480;-82
2023/03/21 10:18:41;;;;;;;30.73;22.20;;;;;;;;;;5044330;28;20425;-82
2023/03/21 10:21:10;;;;;;;30.10;20.67;;;;;;;;;;5045495;28;20414;-82
2023/03/21 10:23:36;;;;;;;28.58;19.63;;;;;;;;;;5044430;28;20429;-82
2023/03/21 10:26:05;;;;;;;24.58;18.83;;;;;;;;;;5045450;28;20431;-82
2023/03/21 10:28:33;;;;;;;27.42;20.33;;;;;;;;;;5042647;28;20467;-81
2023/03/21 10:31:01;;;;;;;26.98;19.63;;;;;;;;;;5047020;28;20441;-82
2023/03/21 10:33:32;;;;;;;29.13;20.38;;;;;;;;;;5043307;28;20528;-82
2023/03/21 10:35:59;;;;;;;27.15;19.80;;;;;;;;;;5046700;28;20919;-82
2023/03/21 10:38:26;;;;;;;25.45;19.83;;;;;;;;;;5046111;28;20425;-82
2023/03/21 10:40:53;;;;;;;29.85;21.02;;;;;;;;;;5043018;28;20435;-82
2023/03/21 10:43:34;;;;;;;26.65;19.95;;;;;;;;;;5042320;28;20423;-82
2023/03/21 10:46:05;;;;;;;29.05;20.60;;;;;;;;;;5041343;28;20436;-82
2023/03/21 10:48:39;;;;;;;26.07;20.20;;;;;;;;;;5044033;28;20478;-82
2023/03/21 10:51:10;;;;;;;30.92;21.73;;;;;;;;;;5043388;28;20481;-82
2023/03/21 10:53:40;;;;;;;29.05;20.08;;;;;;;;;;5045146;28;20421;-82
2023/03/21 10:56:08;;;;;;;28.73;20.38;;;;;;;;;;5044791;28;20435;-82
2023/03/21 10:58:38;;;;;;;28.00;20.77;;;;;;;;;;5043084;28;20498;-82
2023/03/21 11:01:05;;;;;;;27.55;19.88;;;;;;;;;;5042467;28;20906;-82
2023/03/21 11:03:35;;;;;;;26.98;20.15;;;;;;;;;;5044336;28;20432;-82
2023/03/21 11:06:05;;;;;;;30.73;21.92;;;;;;;;;;5043896;28;20906;-82
2023/03/21 11:08:37;;;;;;;27.15;20.63;;;;;;;;;;5041077;28;20421;-82
2023/03/21 11:11:05;;;;;;;24.50;20.23;;;;;;;;;;5044948;28;20439;-82
2023/03/21 11:13:37;;;;;;;26.25;20.38;;;;;;;;;;5039715;28;20427;-82
2023/03/21 11:16:05;;;;;;;28.17;21.65;;;;;;;;;;5042925;28;20429;-82
2023/03/21 11:18:32;;;;;;;26.88;20.98;;;;;;;;;;5043271;28;20440;-82
2023/03/21 11:21:02;;;;;;;32.45;20.52;;;;;;;;;;5041515;28;20431;-82
2023/03/21 11:23:30;;;;;;;26.83;20.45;;;;;;;;;;5042923;28;20422;-81
2023/03/21 11:25:59;;;;;;;28.02;20.42;;;;;;;;;;5044567;28;20433;-82
2023/03/21 11:28:32;;;;;;;25.80;19.77;;;;;;;;;;5045458;28;20459;-82
2023/03/21 11:30:59;;;;;;;27.15;20.60;;;;;;;;;;5044140;28;20417;-82
2023/03/21 11:33:26;;;;;;;26.70;19.90;;;;;;;;;;5041844;28;20479;-82
2023/03/21 11:36:00;;;;;;;25.20;19.60;;;;;;;;;;5043012;28;20444;-82
2023/03/21 11:38:29;;;;;;;27.38;20.38;;;;;;;;;;5043952;28;20432;-83
2023/03/21 11:40:58;;;;;;;30.27;21.00;;;;;;;;;;5041130;28;20431;-82
2023/03/21 11:43:26;;;;;;;26.42;19.90;;;;;;;;;;5040663;28;20431;-82
2023/03/21 11:45:56;;;;;;;26.17;20.00;;;;;;;;;;5043381;28;20453;-82
2023/03/21 11:48:25;;;;;;;28.30;20.55;;;;;;;;;;5040497;28;20431;-82
2023/03/21 11:50:53;;;;;;;25.33;19.40;;;;;;;;;;5045449;28;20427;-82
2023/03/21 11:53:25;;;;;;;28.38;19.77;;;;;;;;;;5043929;28;20440;-82
2023/03/21 11:56:06;;;;;;;25.98;20.00;;;;;;;;;;5041024;28;20424;-82
2023/03/21 11:58:37;;;;;;;26.45;19.73;;;;;;;;;;5040785;28;20435;-82
2023/03/21 12:01:08;;;;;;;24.63;18.70;;;;;;;;;;5041247;28;20949;-82
2023/03/21 12:03:48;;;;;;;25.42;18.85;;;;;;;;;;5042088;28;21098;-82
2023/03/21 12:06:19;;;;;;;28.23;18.57;;;;;;;;;;5040122;28;20439;-82
2023/03/21 12:08:49;;;;;;;27.77;18.90;;;;;;;;;;5042757;28;20424;-82
2023/03/21 12:11:20;;;;;;;22.63;18.80;;;;;;;;;;5042654;28;20418;-82
2023/03/21 12:13:52;;;;;;;28.70;19.38;;;;;;;;;;5062167;28;20791;-82
2023/03/21 12:16:36;;;;;;;25.15;19.30;;;;;;;;;;5062398;28;20427;-82
2023/03/21 12:19:27;;;;;;;26.98;19.30;;;;;;;;;;5060293;28;20431;-82
2023/03/21 12:21:57;;;;;;;25.63;20.05;;;;;;;;;;5044464;28;20962;-82
2023/03/21 12:24:25;;;;;;;29.98;20.55;;;;;;;;;;5061846;28;20419;-82
2023/03/21 12:26:56;;;;;;;28.13;21.00;;;;;;;;;;5055731;28;20422;-81
2023/03/21 12:38:36;;;;;;;27.60;21.98;;;;;;;;;;5040430;28;20478;-82
2023/03/21 12:41:11;;;;;;;29.42;21.77;;;;;;;;;;5044375;28;20475;-81
2023/03/21 12:43:42;;;;;;;29.25;21.48;;;;;;;;;;5042809;28;20452;-82
2023/03/21 12:46:12;;;;;;;36.45;23.33;;;;;;;;;;5036913;28;20429;-82
2023/03/21 12:48:41;;;;;;;32.30;22.75;;;;;;;;;;5043834;28;20540;-82
2023/03/21 12:51:10;;;;;;;30.65;23.70;;;;;;;;;;5042100;28;20469;-82
2023/03/21 12:53:42;;;;;;;34.92;24.95;;;;;;;;;;5043762;28;20428;-82
2023/03/21 12:56:10;;;;;;;31.17;23.80;;;;;;;;;;5038111;28;20431;-82
2023/03/21 12:58:42;;;;;;;34.53;26.20;;;;;;;;;;5041659;28;20436;-82
2023/03/21 13:01:10;;;;;;;39.38;27.15;;;;;;;;;;5042029;28;20434;-82
2023/03/21 13:03:40;;;;;;;37.23;28.00;;;;;;;;;;5042924;28;20418;-81
2023/03/21 13:06:09;;;;;;;37.35;28.75;;;;;;;;;;5043680;28;20517;-81
2023/03/21 13:08:37;;;;;;;34.92;29.15;;;;;;;;;;5042766;28;20432;-81
2023/03/21 13:11:04;;;;;;;43.37;30.67;;;;;;;;;;5044998;28;20428;-81
2023/03/21 13:13:33;;;;;;;41.63;30.83;;;;;;;;;;5042606;28;20426;-82
2023/03/21 13:16:08;;;;;;;40.03;30.02;;;;;;;;;;5048110;28;20444;-82
2023/03/21 13:18:55;;;;;;;46.80;33.05;;;;;;;;;;5046787;28;20425;-81
2023/03/21 13:21:27;;;;;;;43.20;32.67;;;;;;;;;;5032285;28;20914;-82
2023/03/21 13:24:01;;;;;;;41.38;31.75;;;;;;;;;;5041680;28;20425;-81
2023/03/21 13:26:36;;;;;;;40.80;33.13;;;;;;;;;;5040513;28;20427;-81
2023/03/21 13:29:12;;;;;;;42.97;32.17;;;;;;;;;;5043794;28;20486;-82
2023/03/21 13:31:44;;;;;;;42.25;34.17;;;;;;;;;;5046214;28;21017;-82
2023/03/21 13:34:10;;;;;;;37.97;30.50;;;;;;;;;;5045223;28;20434;-81
2023/03/21 13:36:38;;;;;;;40.92;31.67;;;;;;;;;;5044514;28;20425;-81
2023/03/21 13:39:05;;;;;;;41.00;31.87;;;;;;;;;;5038364;28;20517;-81
2023/03/21 13:41:35;;;;;;;38.13;30.38;;;;;;;;;;5045183;28;20429;-81
2023/03/21 13:44:16;;;;;;;41.50;30.90;;;;;;;;;;5047005;28;20448;-82
2023/03/21 13:46:45;;;;;;;37.73;30.30;;;;;;;;;;5047607;28;20488;-81
2023/03/21 13:49:25;;;;;;;44.50;31.92;;;;;;;;;;5041970;28;20429;-82
2023/03/21 13:51:53;;;;;;;37.85;28.80;;;;;;;;;;5042330;28;20783;-82
2023/03/21 13:54:35;;;;;;;37.57;28.00;;;;;;;;;;5045336;28;20427;-82
2023/03/21 13:57:04;;;;;;;37.60;28.15;;;;;;;;;;5043942;28;20497;-82
2023/03/21 13:59:39;;;;;;;36.23;28.80;;;;;;;;;;5043083;28;20443;-81
2023/03/21 14:02:21;;;;;;;35.10;25.30;;;;;;;;;;5044008;28;20414;-81
2023/03/21 14:04:53;;;;;;;30.40;24.95;;;;;;;;;;5045354;28;20413;-81
2023/03/21 14:07:26;;;;;;;30.60;23.70;;;;;;;;;;5040476;28;20413;-81
2023/03/21 14:09:54;;;;;;;32.08;24.50;;;;;;;;;;5044705;28;20418;-81
2023/03/21 14:12:24;;;;;;;32.03;24.15;;;;;;;;;;5044524;28;20412;-81
2023/03/21 14:14:51;;;;;;;31.23;24.80;;;;;;;;;;5044487;28;20944;-82
2023/03/21 14:17:23;;;;;;;33.50;24.50;;;;;;;;;;5040479;28;20423;-81
2023/03/21 14:19:53;;;;;;;32.60;23.70;;;;;;;;;;5045494;28;20439;-81
2023/03/21 14:22:21;;;;;;;29.92;23.20;;;;;;;;;;5044282;28;20804;-82
2023/03/21 14:24:48;;;;;;;32.87;24.23;;;;;;;;;;5043887;28;20430;-81
2023/03/21 14:27:14;;;;;;;30.10;23.53;;;;;;;;;;5041796;28;20924;-82
2023/03/21 14:29:42;;;;;;;27.23;23.20;;;;;;;;;;5047167;28;20932;-82
2023/03/21 14:32:18;;;;;;;33.45;24.52;;;;;;;;;;5043650;28;20420;-81